Time;durP1;ratioP1;P1;durP2;ratioP2;P2;SDS_P1;SDS_P2;PMS_P1;PMS_P2;Temp;Humidity;BMP_temperature;BMP_pressure;BME280_temperature;BME280_humidity;BME280_pressure;Samples;Min_cycle;Max_cycle;Signal;HPM_P1;HPM_P2
2022/09/09 00:02:04;;;;;;;14.20;8.25;;;15.40;99.90;;;;;;5048942;28;37921;-76
2022/09/09 00:04:33;;;;;;;9.63;7.05;;;15.50;99.90;;;;;;5028023;28;47170;-76
2022/09/09 00:07:18;;;;;;;13.55;7.65;;;15.50;99.90;;;;;;5027302;28;37482;-76
2022/09/09 00:09:57;;;;;;;14.43;7.70;;;15.50;99.90;;;;;;5024533;28;47293;-77
2022/09/09 00:12:48;;;;;;;11.77;6.60;;;15.50;99.90;;;;;;5029254;28;38869;-77
2022/09/09 00:15:21;;;;;;;9.68;5.68;;;15.50;99.90;;;;;;5024117;28;36432;-76
2022/09/09 00:17:58;;;;;;;10.20;5.95;;;15.50;99.90;;;;;;5029090;28;38441;-76
2022/09/09 00:20:34;;;;;;;12.02;6.40;;;15.50;99.90;;;;;;5044586;28;37845;-76
2022/09/09 00:23:14;;;;;;;12.07;5.68;;;15.50;99.90;;;;;;5045477;28;38413;-77
2022/09/09 00:26:06;;;;;;;7.90;4.75;;;15.50;99.90;;;;;;5045936;28;47092;-77
2022/09/09 00:28:39;;;;;;;11.80;5.28;;;15.50;99.90;;;;;;5063090;28;48107;-76
2022/09/09 00:31:18;;;;;;;10.57;4.05;;;15.50;99.90;;;;;;5060580;28;38538;-77
2022/09/09 00:33:46;;;;;;;9.30;4.20;;;15.50;99.90;;;;;;5042264;28;37158;-76
2022/09/09 00:36:21;;;;;;;9.65;4.00;;;15.50;99.90;;;;;;5063504;28;36887;-77
2022/09/09 00:38:52;;;;;;;9.10;4.15;;;15.50;99.90;;;;;;5049042;28;38868;-76
2022/09/09 00:41:39;;;;;;;14.60;3.97;;;15.50;99.90;;;;;;5044741;28;37895;-76
2022/09/09 00:44:18;;;;;;;11.13;2.95;;;15.40;99.90;;;;;;5044230;28;38013;-76
2022/09/09 00:46:53;;;;;;;11.27;3.78;;;15.40;99.90;;;;;;5041623;28;37119;-76
2022/09/09 00:49:50;;;;;;;6.30;3.03;;;15.40;99.90;;;;;;5059957;28;39186;-76
2022/09/09 00:52:43;;;;;;;8.25;2.53;;;15.50;99.90;;;;;;5062963;28;39388;-77
2022/09/09 00:55:32;;;;;;;10.60;4.00;;;15.40;99.90;;;;;;5046072;28;37120;-77
2022/09/09 00:57:58;;;;;;;5.65;2.60;;;15.40;99.90;;;;;;5064583;28;37258;-76
2022/09/09 01:03:45;;;;;;;7.35;2.50;;;15.50;99.90;;;;;;5616685;22;21877;-84
2022/09/09 01:06:13;;;;;;;4.10;2.35;;;15.50;99.90;;;;;;5049375;28;36682;-83
2022/09/09 01:09:09;;;;;;;7.18;2.60;;;15.60;99.90;;;;;;5045784;28;38084;-83
2022/09/09 01:12:00;;;;;;;6.18;2.05;;;15.60;99.90;;;;;;5073458;28;49463;-84
2022/09/09 01:14:35;;;;;;;4.90;1.92;;;15.60;99.90;;;;;;5082587;28;47855;-82
2022/09/09 01:17:32;;;;;;;6.45;1.80;;;15.60;99.90;;;;;;5056075;28;38560;-84
2022/09/09 01:20:12;;;;;;;9.52;2.33;;;15.60;99.90;;;;;;5009282;28;46737;-84
2022/09/09 01:22:50;;;;;;;4.25;2.10;;;15.60;99.90;;;;;;5040889;28;47123;-85
2022/09/09 01:25:44;;;;;;;9.48;2.13;;;15.50;99.90;;;;;;5043939;28;38025;-84
2022/09/09 01:28:16;;;;;;;5.90;2.25;;;15.50;99.90;;;;;;5069666;28;38393;-84
2022/09/09 01:30:45;;;;;;;;;;;15.50;99.90;;;;;;5066841;28;37437;-82
2022/09/09 01:33:15;;;;;;;6.15;1.90;;;15.50;99.90;;;;;;5044746;28;37078;-84
2022/09/09 01:36:09;;;;;;;8.02;2.65;;;15.50;99.90;;;;;;5067650;28;38300;-82
2022/09/09 01:38:36;;;;;;;4.10;1.65;;;15.50;99.90;;;;;;5023633;28;48803;-85
2022/09/09 01:41:03;;;;;;;6.32;1.55;;;15.50;99.90;;;;;;5065247;28;37694;-82
2022/09/09 01:43:29;;;;;;;5.70;2.05;;;15.50;99.90;;;;;;5069793;28;39293;-83
2022/09/09 01:45:58;;;;;;;11.05;2.17;;;15.50;99.90;;;;;;5068151;28;38420;-83
2022/09/09 01:48:26;;;;;;;8.20;2.53;;;15.50;99.90;;;;;;5046604;28;37036;-85
2022/09/09 01:50:52;;;;;;;7.43;1.98;;;15.50;99.90;;;;;;5071030;28;36810;-84
2022/09/09 01:53:20;;;;;;;5.85;1.98;;;15.50;99.90;;;;;;5062534;28;38653;-85
2022/09/09 01:56:12;;;;;;;10.75;2.85;;;15.50;99.90;;;;;;5044419;28;37413;-85
2022/09/09 01:58:44;;;;;;;7.88;2.38;;;15.50;99.90;;;;;;5046970;28;47270;-84
2022/09/09 02:01:15;;;;;;;6.20;2.72;;;15.50;99.90;;;;;;5047066;28;35922;-85
2022/09/09 02:03:46;;;;;;;7.47;2.72;;;15.50;99.90;;;;;;5051365;28;38130;-81
2022/09/09 02:06:37;;;;;;;10.13;2.40;;;15.50;99.90;;;;;;5065403;28;38169;-84
2022/09/09 02:09:06;;;;;;;6.60;2.35;;;15.50;99.90;;;;;;5052696;28;38474;-83
2022/09/09 02:11:33;;;;;;;7.68;2.05;;;15.50;99.90;;;;;;5045885;28;35989;-82
2022/09/09 02:14:12;;;;;;;6.15;2.20;;;15.50;99.90;;;;;;5046841;28;37707;-82
2022/09/09 02:16:44;;;;;;;6.22;2.47;;;15.50;99.90;;;;;;5042512;28;46011;-83
2022/09/09 02:19:34;;;;;;;7.53;2.65;;;15.50;99.90;;;;;;5066830;28;39014;-83
2022/09/09 02:22:02;;;;;;;6.85;2.10;;;15.60;99.90;;;;;;5083175;28;38820;-82
2022/09/09 02:24:35;;;;;;;5.85;2.42;;;15.60;99.90;;;;;;5067973;28;48744;-83
2022/09/09 02:27:10;;;;;;;6.38;2.38;;;15.50;99.90;;;;;;5074368;28;38497;-82
2022/09/09 02:29:47;;;;;;;7.85;2.85;;;15.60;99.90;;;;;;5049630;28;37447;-84
2022/09/09 02:32:19;;;;;;;6.75;2.92;;;15.50;99.90;;;;;;5060710;28;36295;-83
2022/09/09 02:34:49;;;;;;;8.43;3.05;;;15.60;99.90;;;;;;5040979;28;37492;-85
2022/09/09 02:37:19;;;;;;;11.40;3.20;;;15.50;99.90;;;;;;5046811;28;37153;-85
2022/09/09 02:39:46;;;;;;;9.95;4.13;;;15.50;99.90;;;;;;5048946;28;36882;-83
2022/09/09 02:42:14;;;;;;;11.30;4.47;;;15.50;99.90;;;;;;5054063;28;36239;-82
2022/09/09 02:44:41;;;;;;;10.60;4.65;;;15.50;99.90;;;;;;5055972;28;37809;-82
2022/09/09 02:47:30;;;;;;;7.32;3.40;;;15.50;99.90;;;;;;5067441;28;38588;-83
2022/09/09 02:50:13;;;;;;;8.82;3.97;;;15.50;99.90;;;;;;5063924;28;38417;-82
2022/09/09 02:53:18;;;;;;;8.50;3.75;;;15.50;99.90;;;;;;5052232;28;47401;-81
2022/09/09 02:55:54;;;;;;;11.18;4.03;;;15.50;99.90;;;;;;5061951;28;47865;-82
2022/09/09 02:58:22;;;;;;;10.38;2.70;;;15.50;99.90;;;;;;5065332;28;37304;-80
2022/09/09 03:00:50;;;;;;;6.57;2.65;;;15.50;99.90;;;;;;5073531;28;38604;-80
2022/09/09 03:03:19;;;;;;;6.72;2.30;;;15.50;99.90;;;;;;5063898;28;37141;-79
2022/09/09 03:05:49;;;;;;;9.25;3.05;;;15.50;99.90;;;;;;5076358;28;39146;-81
2022/09/09 03:08:16;;;;;;;7.53;2.60;;;15.50;99.90;;;;;;5084687;28;38174;-81
2022/09/09 03:10:43;;;;;;;10.10;2.78;;;15.50;99.90;;;;;;5067972;28;37902;-78
2022/09/09 03:13:10;;;;;;;9.57;2.97;;;15.50;99.90;;;;;;5072110;28;38042;-80
2022/09/09 03:15:37;;;;;;;8.35;2.20;;;15.50;99.90;;;;;;5064423;28;36921;-80
2022/09/09 03:18:05;;;;;;;4.40;2.45;;;15.50;99.90;;;;;;5039235;28;38154;-82
2022/09/09 03:20:32;;;;;;;7.10;2.22;;;15.50;99.90;;;;;;5076900;28;37222;-81
2022/09/09 03:22:59;;;;;;;7.50;2.50;;;15.50;99.90;;;;;;5076709;28;36699;-80
2022/09/09 03:25:30;;;;;;;7.28;3.03;;;15.50;99.90;;;;;;5076204;28;38994;-80
2022/09/09 03:28:00;;;;;;;8.20;2.50;;;15.50;99.90;;;;;;5074966;28;38372;-80
2022/09/09 03:30:28;;;;;;;5.78;2.60;;;15.50;99.90;;;;;;5077361;28;37673;-79
2022/09/09 03:32:55;;;;;;;7.78;2.80;;;15.50;99.90;;;;;;5065456;28;36246;-80
2022/09/09 03:35:21;;;;;;;5.85;2.65;;;15.40;99.90;;;;;;5062415;28;39493;-79
2022/09/09 03:37:47;;;;;;;8.75;2.40;;;15.40;99.90;;;;;;5086733;28;38284;-80
2022/09/09 03:40:14;;;;;;;7.82;2.33;;;15.40;99.90;;;;;;5059769;28;37174;-79
2022/09/09 03:42:40;;;;;;;7.22;2.70;;;15.40;99.90;;;;;;5066924;28;37420;-80
2022/09/09 03:45:10;;;;;;;6.57;2.58;;;15.40;99.90;;;;;;5086843;28;38445;-79
2022/09/09 03:47:36;;;;;;;7.65;3.10;;;15.30;99.90;;;;;;5079806;28;39168;-80
2022/09/09 03:50:06;;;;;;;8.27;3.00;;;15.30;99.90;;;;;;5063350;28;37444;-79
2022/09/09 03:52:35;;;;;;;10.90;3.15;;;15.30;99.90;;;;;;5050480;28;37352;-80
2022/09/09 03:55:05;;;;;;;9.43;3.42;;;15.20;99.90;;;;;;5065860;28;39995;-80
2022/09/09 03:57:35;;;;;;;7.47;3.00;;;15.20;99.90;;;;;;5073283;28;47138;-81
2022/09/09 04:00:07;;;;;;;10.38;3.20;;;15.20;99.90;;;;;;5077664;28;38414;-81
2022/09/09 04:02:34;;;;;;;8.93;3.05;;;15.10;99.90;;;;;;5060269;28;36529;-80
2022/09/09 04:05:03;;;;;;;12.60;3.72;;;15.10;99.90;;;;;;5069815;28;37919;-80
2022/09/09 04:07:30;;;;;;;4.50;2.78;;;15.10;99.90;;;;;;5071687;28;47675;-80
2022/09/09 04:09:56;;;;;;;13.55;3.63;;;15.10;99.90;;;;;;5073208;28;38010;-80
2022/09/09 04:12:23;;;;;;;7.03;3.58;;;15.00;99.90;;;;;;5075089;28;37214;-81
2022/09/09 04:14:56;;;;;;;10.40;3.35;;;15.00;99.90;;;;;;5080534;28;38743;-81
2022/09/09 04:17:24;;;;;;;12.63;3.80;;;15.00;99.90;;;;;;5094145;28;39293;-81
2022/09/09 04:19:56;;;;;;;10.63;3.38;;;15.00;99.90;;;;;;5071409;28;38580;-81
2022/09/09 04:22:45;;;;;;;8.10;3.53;;;15.00;99.90;;;;;;5065985;28;37275;-82
2022/09/09 04:25:12;;;;;;;10.35;4.30;;;15.00;99.90;;;;;;5088140;28;38932;-81
2022/09/09 04:27:39;;;;;;;11.80;3.40;;;14.90;99.90;;;;;;5075031;28;38930;-80
2022/09/09 04:30:07;;;;;;;8.77;3.60;;;15.00;99.90;;;;;;5061527;28;40434;-81
2022/09/09 04:32:35;;;;;;;12.82;4.43;;;14.90;99.90;;;;;;5092293;28;38635;-80
2022/09/09 04:35:19;;;;;;;8.70;3.92;;;14.90;99.90;;;;;;5068868;28;38965;-81
2022/09/09 04:37:52;;;;;;;8.27;3.83;;;14.80;99.90;;;;;;5065792;28;38982;-81
2022/09/09 04:40:22;;;;;;;11.05;4.82;;;14.80;99.90;;;;;;5092240;28;39063;-81
2022/09/09 04:43:04;;;;;;;9.20;4.40;;;14.80;99.90;;;;;;5073661;28;36428;-81
2022/09/09 04:45:40;;;;;;;11.23;4.28;;;14.80;99.90;;;;;;5078282;28;47609;-82
2022/09/09 04:48:07;;;;;;;12.13;5.03;;;14.80;99.90;;;;;;5081534;22;38762;-77
2022/09/09 04:50:33;;;;;;;7.00;3.78;;;14.80;99.90;;;;;;5052303;28;39757;-77
2022/09/09 04:53:04;;;;;;;8.25;4.35;;;14.80;99.90;;;;;;5064887;28;36936;-77
2022/09/09 04:55:31;;;;;;;9.10;4.30;;;14.70;99.90;;;;;;5046648;28;48193;-78
2022/09/09 04:58:02;;;;;;;9.18;4.72;;;14.70;99.90;;;;;;5067584;28;38802;-77
2022/09/09 05:00:28;;;;;;;11.50;4.32;;;14.70;99.90;;;;;;5063390;28;49708;-77
2022/09/09 05:02:54;;;;;;;14.23;4.65;;;14.70;99.90;;;;;;5064465;28;37006;-76
2022/09/09 05:05:20;;;;;;;12.68;4.75;;;14.70;99.90;;;;;;5041104;28;37803;-75
2022/09/09 05:07:47;;;;;;;11.45;4.85;;;14.70;99.90;;;;;;5045433;28;37433;-76
2022/09/09 05:10:14;;;;;;;10.13;4.25;;;14.60;99.90;;;;;;5047455;28;37003;-76
2022/09/09 05:12:41;;;;;;;14.13;4.40;;;14.70;99.90;;;;;;5042726;28;38468;-76
2022/09/09 05:15:07;;;;;;;13.82;5.13;;;14.70;99.90;;;;;;5061176;28;40624;-76
2022/09/09 05:17:33;;;;;;;16.35;5.15;;;14.60;99.90;;;;;;5060210;28;38145;-75
2022/09/09 05:19:59;;;;;;;10.93;4.60;;;14.70;99.90;;;;;;5060925;28;37748;-76
2022/09/09 05:22:26;;;;;;;11.50;4.40;;;14.70;99.90;;;;;;5042199;28;34558;-76
2022/09/09 05:24:52;;;;;;;10.73;4.85;;;14.70;99.90;;;;;;5050877;28;37730;-76
2022/09/09 05:27:19;;;;;;;13.77;4.75;;;14.70;99.90;;;;;;5064947;28;38689;-76
2022/09/09 05:29:46;;;;;;;12.10;4.97;;;14.70;99.90;;;;;;5046112;28;37417;-76
2022/09/09 05:32:13;;;;;;;10.35;4.40;;;14.70;99.90;;;;;;5063827;28;35268;-77
2022/09/09 05:34:39;;;;;;;11.65;4.80;;;14.70;99.90;;;;;;5072137;28;39936;-76
2022/09/09 05:37:07;;;;;;;9.68;4.47;;;14.80;99.90;;;;;;5045279;28;37225;-76
2022/09/09 05:39:36;;;;;;;14.18;4.55;;;14.70;99.90;;;;;;5053239;28;36954;-76
2022/09/09 05:42:04;;;;;;;16.80;4.30;;;14.80;99.90;;;;;;5071715;28;37994;-77
2022/09/09 05:44:31;;;;;;;9.32;4.55;;;14.80;99.90;;;;;;5049955;28;37680;-77
2022/09/09 05:46:57;;;;;;;12.27;4.60;;;14.90;99.90;;;;;;5060626;28;39430;-76
2022/09/09 05:49:24;;;;;;;14.38;3.97;;;14.90;99.90;;;;;;5027201;28;37255;-76
2022/09/09 05:51:50;;;;;;;10.73;3.72;;;14.90;99.90;;;;;;5064388;28;37129;-77
2022/09/09 05:54:17;;;;;;;13.57;4.03;;;14.90;99.90;;;;;;5049119;28;37607;-76
2022/09/09 05:56:43;;;;;;;15.80;4.15;;;14.90;99.90;;;;;;5049793;28;37151;-76
2022/09/09 05:59:09;;;;;;;10.95;3.50;;;15.00;99.90;;;;;;5047322;28;37000;-76
2022/09/09 06:01:40;;;;;;;7.88;3.70;;;15.00;99.90;;;;;;5050430;28;36113;-75
2022/09/09 06:04:07;;;;;;;8.75;3.35;;;15.10;99.90;;;;;;5050288;28;39293;-76
2022/09/09 06:06:36;;;;;;;12.18;3.28;;;15.10;99.90;;;;;;5034261;28;37282;-76
2022/09/09 06:09:06;;;;;;;12.00;3.70;;;15.20;99.90;;;;;;5043072;28;37079;-76
2022/09/09 06:11:34;;;;;;;11.13;3.33;;;15.20;99.90;;;;;;5067547;28;36918;-77
2022/09/09 06:14:00;;;;;;;9.93;3.03;;;15.30;99.90;;;;;;5068167;28;42312;-77
2022/09/09 06:16:28;;;;;;;10.82;2.97;;;15.30;99.90;;;;;;5064004;28;38583;-76
2022/09/09 06:18:59;;;;;;;9.77;2.75;;;15.30;99.90;;;;;;5066330;28;37929;-76
2022/09/09 06:21:28;;;;;;;13.27;3.20;;;15.40;99.90;;;;;;5047611;28;36258;-77
2022/09/09 06:23:54;;;;;;;11.55;2.70;;;15.40;99.90;;;;;;5065722;28;39443;-76
2022/09/09 06:26:34;;;;;;;11.38;3.42;;;15.50;99.90;;;;;;5063565;28;38882;-76
2022/09/09 06:29:03;;;;;;;10.25;3.10;;;15.50;99.90;;;;;;5048466;28;38662;-77
2022/09/09 06:31:31;;;;;;;16.23;3.17;;;15.60;99.90;;;;;;5046035;28;47203;-76
2022/09/09 06:33:58;;;;;;;12.23;3.15;;;15.60;99.90;;;;;;5058928;28;39394;-76
2022/09/09 06:36:29;;;;;;;10.23;3.20;;;15.70;99.90;;;;;;5057922;28;38114;-76
2022/09/09 06:38:55;;;;;;;13.00;3.40;;;15.70;99.90;;;;;;5058033;28;39812;-76
2022/09/09 06:41:23;;;;;;;13.93;3.33;;;15.70;99.90;;;;;;5065828;28;38279;-76
2022/09/09 06:43:50;;;;;;;11.52;3.10;;;15.80;99.90;;;;;;5055560;28;38713;-76
2022/09/09 06:46:22;;;;;;;10.98;3.35;;;15.80;99.90;;;;;;5037652;28;38726;-76
2022/09/09 06:48:48;;;;;;;10.68;3.15;;;15.80;99.90;;;;;;5057587;28;38391;-75
2022/09/09 06:51:22;;;;;;;10.65;2.78;;;15.80;99.90;;;;;;5060987;28;38288;-77
2022/09/09 06:53:54;;;;;;;11.88;3.00;;;15.80;99.90;;;;;;5064972;28;39266;-76
2022/09/09 06:56:28;;;;;;;12.23;3.20;;;15.80;99.90;;;;;;5063961;28;39172;-75
2022/09/09 06:59:04;;;;;;;13.10;3.92;;;15.80;99.90;;;;;;5059236;28;37864;-76
2022/09/09 07:01:36;;;;;;;8.32;2.85;;;15.80;99.90;;;;;;5039236;28;47479;-75
2022/09/09 07:04:08;;;;;;;10.65;2.90;;;15.80;99.90;;;;;;5053333;28;38846;-79
2022/09/09 07:17:44;;;;;;;8.93;3.38;;;15.80;99.90;;;;;;5671079;22;21334;-80
2022/09/09 07:20:14;;;;;;;12.38;3.25;;;15.80;99.90;;;;;;5069334;28;39176;-82
2022/09/09 07:35:28;;;;;;;14.45;3.35;;;16.00;99.90;;;;;;5241162;22;20047;-80
2022/09/09 07:37:58;;;;;;;;;;;16.00;99.90;;;;;;5008865;28;40114;-80
2022/09/09 07:40:32;;;;;;;11.23;3.33;;;16.00;99.90;;;;;;5015910;28;37612;-82
2022/09/09 07:42:59;;;;;;;11.68;2.70;;;16.10;99.90;;;;;;5027442;28;38675;-82
2022/09/09 07:45:33;;;;;;;10.80;2.88;;;16.10;99.90;;;;;;4999489;28;37664;-81
2022/09/09 07:48:01;;;;;;;11.88;2.85;;;16.10;99.90;;;;;;5012330;28;40137;-83
2022/09/09 07:50:28;;;;;;;11.07;3.08;;;16.10;99.90;;;;;;4992104;28;47302;-84
2022/09/09 07:52:55;;;;;;;9.85;3.08;;;16.20;99.90;;;;;;4993944;28;36903;-82
2022/09/09 07:55:25;;;;;;;10.30;3.30;;;16.10;99.90;;;;;;5010676;28;38160;-83
2022/09/09 07:57:52;;;;;;;15.70;2.97;;;16.20;99.90;;;;;;4991691;28;37484;-84
2022/09/09 08:00:19;;;;;;;9.70;2.88;;;16.20;99.90;;;;;;5009074;28;39237;-82
2022/09/09 08:02:46;;;;;;;12.70;2.70;;;16.20;99.90;;;;;;4987689;28;37404;-81
2022/09/09 08:05:13;;;;;;;8.43;2.80;;;16.20;99.90;;;;;;4989756;28;36986;-84
2022/09/09 08:07:39;;;;;;;10.32;3.20;;;16.20;99.90;;;;;;5012267;28;40616;-81
2022/09/09 08:10:06;;;;;;;14.02;3.08;;;16.20;99.90;;;;;;4995198;28;37275;-81
2022/09/09 08:12:32;;;;;;;9.38;2.30;;;16.30;99.90;;;;;;4990820;28;37330;-81
2022/09/09 08:14:58;;;;;;;12.48;2.47;;;16.30;99.90;;;;;;4987337;28;36160;-83
2022/09/09 08:17:24;;;;;;;11.95;3.00;;;16.30;99.90;;;;;;4990580;28;38419;-83
2022/09/09 08:19:50;;;;;;;11.07;2.40;;;16.40;99.90;;;;;;5005754;28;37784;-83
2022/09/09 08:22:16;;;;;;;7.93;2.60;;;16.40;99.90;;;;;;5017277;28;38007;-82
2022/09/09 08:24:43;;;;;;;11.13;2.75;;;16.40;99.90;;;;;;4997191;28;36199;-82
2022/09/09 08:27:09;;;;;;;7.50;2.45;;;16.50;99.90;;;;;;4993164;28;38813;-84
2022/09/09 08:29:37;;;;;;;9.77;2.45;;;16.40;99.90;;;;;;4980247;28;37306;-85
2022/09/09 08:32:04;;;;;;;13.30;3.00;;;16.50;99.90;;;;;;4984835;28;37152;-85
2022/09/09 08:34:31;;;;;;;13.82;3.00;;;16.50;99.90;;;;;;5008482;28;37156;-85
2022/09/09 08:36:57;;;;;;;10.48;2.55;;;16.50;99.90;;;;;;5002691;28;38596;-83
2022/09/09 08:39:24;;;;;;;14.43;2.83;;;16.50;99.90;;;;;;4977704;28;37206;-84
2022/09/09 08:42:00;;;;;;;9.07;2.28;;;16.40;99.90;;;;;;4972434;28;38396;-84
2022/09/09 08:44:38;;;;;;;12.23;3.10;;;16.50;99.90;;;;;;4991417;28;36103;-82
2022/09/09 08:47:12;;;;;;;13.52;2.97;;;16.50;99.90;;;;;;4996828;28;39024;-85
2022/09/09 08:50:02;;;;;;;12.63;2.45;;;16.50;99.90;;;;;;5003971;28;38078;-83
2022/09/09 08:52:52;;;;;;;11.82;2.42;;;16.60;99.90;;;;;;5007181;28;49348;-82
2022/09/09 08:55:36;;;;;;;13.07;2.38;;;16.60;99.90;;;;;;4950723;28;36136;-79
2022/09/09 08:58:16;;;;;;;10.70;2.55;;;16.70;99.90;;;;;;4993251;28;37957;-80
2022/09/09 09:01:08;;;;;;;9.32;1.95;;;16.70;99.90;;;;;;5016274;28;39003;-81
2022/09/09 09:03:50;;;;;;;12.43;2.53;;;16.70;99.90;;;;;;5005970;28;48901;-80
2022/09/09 09:06:36;;;;;;;11.73;2.42;;;16.80;99.90;;;;;;5014870;28;36718;-78
2022/09/09 09:09:06;;;;;;;7.78;2.15;;;16.80;99.90;;;;;;4996670;28;38148;-80
2022/09/09 09:11:43;;;;;;;12.13;2.15;;;16.80;99.90;;;;;;4986371;28;37523;-81
2022/09/09 09:14:16;;;;;;;11.65;3.58;;;16.80;99.90;;;;;;4999042;28;37281;-80
2022/09/09 09:16:59;;;;;;;10.80;2.20;;;16.80;99.90;;;;;;4993012;28;35927;-81
2022/09/09 09:19:28;;;;;;;11.05;2.40;;;16.70;99.90;;;;;;4992521;28;38542;-80
2022/09/09 09:22:19;;;;;;;8.35;2.78;;;16.70;99.90;;;;;;5006957;28;39029;-81
2022/09/09 09:24:52;;;;;;;13.02;2.47;;;16.60;99.90;;;;;;4991935;28;47307;-80
2022/09/09 09:27:22;;;;;;;;;;;16.60;99.90;;;;;;4995768;28;36484;-80
2022/09/09 09:29:52;;;;;;;9.75;2.55;;;16.60;99.90;;;;;;5025839;28;39247;-79
2022/09/09 09:32:20;;;;;;;9.68;2.50;;;16.60;99.90;;;;;;4998301;28;38635;-81
2022/09/09 09:35:11;;;;;;;10.05;2.42;;;16.60;99.90;;;;;;5001133;28;37131;-81
2022/09/09 09:37:39;;;;;;;10.27;2.22;;;16.70;99.90;;;;;;4989325;28;47001;-81
2022/09/09 09:40:17;;;;;;;6.22;1.70;;;16.80;99.90;;;;;;5000115;28;38256;-79
2022/09/09 09:42:53;;;;;;;9.70;1.95;;;16.90;99.90;;;;;;4977974;28;39919;-79
2022/09/09 09:45:44;;;;;;;10.70;2.83;;;16.90;99.90;;;;;;4982488;28;38883;-78
2022/09/09 09:48:12;;;;;;;10.35;2.80;;;16.80;99.90;;;;;;4999145;28;37663;-79
2022/09/09 09:50:52;;;;;;;5.93;2.00;;;16.70;99.90;;;;;;5001016;28;39366;-79
2022/09/09 09:53:29;;;;;;;13.52;2.85;;;16.60;99.90;;;;;;5006784;28;38388;-81
2022/09/09 09:56:01;;;;;;;9.63;2.78;;;16.60;99.90;;;;;;5004871;28;38218;-82
2022/09/09 09:58:32;;;;;;;10.40;2.72;;;16.60;99.90;;;;;;5007800;28;48550;-78
2022/09/09 10:00:59;;;;;;;7.03;2.35;;;16.40;99.90;;;;;;4989089;28;40058;-79
2022/09/09 10:03:37;;;;;;;8.48;2.55;;;16.30;99.90;;;;;;5016055;28;39531;-78
2022/09/09 10:06:03;;;;;;;10.65;2.70;;;16.20;99.90;;;;;;4983414;28;37269;-79
2022/09/09 10:08:33;;;;;;;13.18;2.55;;;16.30;99.90;;;;;;5011589;28;36968;-79
2022/09/09 10:19:12;;;;;;;10.45;2.20;;;16.60;99.90;;;;;;5224256;23;20735;-86
2022/09/09 10:21:57;;;;;;;7.28;2.08;;;16.90;99.90;;;;;;5006795;28;48374;-85
2022/09/09 10:24:30;;;;;;;5.40;1.70;;;17.20;99.90;;;;;;5014682;28;38612;-84
2022/09/09 10:30:24;;;;;;;6.43;2.33;;;17.20;99.90;;;;;;5194149;22;20043;-82
2022/09/09 10:36:00;;;;;;;7.65;1.77;;;17.00;99.90;;;;;;5065251;23;20046;-82
2022/09/09 10:39:05;;;;;;;6.47;2.30;;;16.70;99.90;;;;;;5011294;28;50135;-80
2022/09/09 10:41:59;;;;;;;5.32;2.33;;;16.40;99.90;;;;;;4997609;28;48057;-82
2022/09/09 10:47:32;;;;;;;7.40;3.42;;;16.30;99.90;;;;;;5031966;23;20046;-83
2022/09/09 10:55:56;;;;;;;7.85;2.55;;;16.60;99.90;;;;;;5076642;22;20050;-84
2022/09/09 10:58:34;;;;;;;5.47;2.53;;;16.90;99.90;;;;;;5005163;28;38420;-85
2022/09/09 11:01:15;;;;;;;5.93;2.63;;;17.20;99.90;;;;;;5002159;28;38017;-80
2022/09/09 11:03:44;;;;;;;5.00;2.23;;;17.50;99.90;;;;;;5023010;28;48526;-83
2022/09/09 11:06:20;;;;;;;5.00;2.10;;;17.80;99.90;;;;;;4996950;28;39140;-86
2022/09/09 11:08:49;;;;;;;7.13;2.30;;;17.70;99.90;;;;;;5001155;28;39647;-81
2022/09/09 11:11:26;;;;;;;7.05;2.38;;;17.80;99.90;;;;;;5023012;28;37662;-86
2022/09/09 11:14:03;;;;;;;7.78;2.20;;;17.70;99.90;;;;;;5001339;28;37999;-86
2022/09/09 11:16:48;;;;;;;5.68;1.98;;;17.60;99.90;;;;;;5011476;28;47354;-79
2022/09/09 11:19:38;;;;;;;6.68;2.30;;;17.60;99.90;;;;;;5003027;28;38454;-87
2022/09/09 11:22:27;;;;;;;6.38;2.38;;;17.50;99.90;;;;;;5002685;28;36948;-77
2022/09/09 11:25:01;;;;;;;5.97;2.00;;;17.50;99.90;;;;;;5006103;28;36257;-80
2022/09/09 11:27:39;;;;;;;5.15;1.98;;;17.50;99.90;;;;;;4998803;28;37508;-83
2022/09/09 11:30:14;;;;;;;7.93;2.33;;;17.50;99.90;;;;;;5016212;28;39366;-82
2022/09/09 11:33:00;;;;;;;7.32;2.13;;;17.50;99.90;;;;;;5004072;28;38513;-81
2022/09/09 11:35:52;;;;;;;8.63;2.40;;;17.40;99.90;;;;;;5008659;28;47080;-78
2022/09/09 11:38:57;;;;;;;10.85;3.42;;;17.20;99.90;;;;;;5004328;28;37906;-81
2022/09/09 11:41:24;;;;;;;9.52;3.38;;;17.00;99.90;;;;;;4998619;28;38240;-86
2022/09/09 11:43:52;;;;;;;12.18;3.85;;;16.90;99.90;;;;;;5019572;28;37347;-84
2022/09/09 11:46:21;;;;;;;9.80;3.65;;;16.80;99.90;;;;;;5003282;28;37129;-86
2022/09/09 11:49:31;;;;;;;7.20;3.30;;;16.70;99.90;;;;;;4998583;28;38225;-85
2022/09/09 11:51:57;;;;;;;11.70;4.22;;;16.60;99.90;;;;;;4984982;28;48486;-88
2022/09/09 11:54:32;;;;;;;10.85;3.97;;;16.60;99.90;;;;;;5000913;28;36889;-92
2022/09/09 11:56:59;;;;;;;12.63;5.00;;;16.60;99.90;;;;;;5003217;28;36313;-85
2022/09/09 11:59:31;;;;;;;12.75;4.68;;;16.50;99.90;;;;;;5005913;28;38030;-87
2022/09/09 12:01:57;;;;;;;;;;;16.40;99.90;;;;;;5017946;28;39116;-87
2022/09/09 12:04:39;;;;;;;10.40;4.63;;;16.40;99.90;;;;;;5022401;28;39402;-86
2022/09/09 12:07:49;;;;;;;10.45;4.55;;;16.40;99.90;;;;;;5008240;28;35808;-86
2022/09/09 12:10:48;;;;;;;13.57;5.07;;;16.40;99.90;;;;;;4993246;28;39248;-86
2022/09/09 12:13:33;;;;;;;9.13;5.00;;;16.40;99.90;;;;;;5012871;28;38244;-84
2022/09/09 12:16:02;;;;;;;10.82;5.40;;;16.40;99.90;;;;;;5026465;28;38879;-86
2022/09/09 12:18:36;;;;;;;12.75;6.13;;;16.40;99.90;;;;;;5007386;28;47138;-88
2022/09/09 12:33:16;;;;;;;12.93;6.03;;;16.20;99.90;;;;;;5076995;23;20050;-87
2022/09/09 12:35:44;;;;;;;12.68;6.00;;;16.20;99.90;;;;;;5009133;28;47474;-85
2022/09/09 12:38:19;;;;;;;14.30;7.32;;;16.20;99.90;;;;;;5022405;28;39047;-86
2022/09/09 12:40:57;;;;;;;23.70;7.05;;;16.20;99.90;;;;;;5005205;28;39722;-86
2022/09/09 12:43:25;;;;;;;17.10;3.25;;;16.10;99.90;;;;;;5001543;28;40524;-80
2022/09/09 12:46:00;;;;;;;4.18;1.58;;;15.50;99.90;;;;;;4998864;28;38667;-82
2022/09/09 12:48:40;;;;;;;6.57;1.85;;;15.40;99.90;;;;;;5022172;28;38428;-82
2022/09/09 12:51:18;;;;;;;4.45;2.05;;;15.50;99.90;;;;;;5004760;28;37946;-86
2022/09/09 12:53:45;;;;;;;5.45;1.73;;;15.70;99.90;;;;;;5005934;28;39523;-81
2022/09/09 12:56:21;;;;;;;5.93;1.63;;;15.80;99.90;;;;;;5005228;28;38657;-85
2022/09/09 12:58:51;;;;;;;4.13;1.90;;;16.00;99.90;;;;;;5003975;28;36936;-83
2022/09/09 13:01:32;;;;;;;4.63;3.00;;;16.50;99.90;;;;;;5006025;28;37789;-83
2022/09/09 13:03:58;;;;;;;6.03;2.78;;;16.80;99.90;;;;;;4998769;28;39654;-86
2022/09/09 13:06:32;;;;;;;3.95;1.85;;;17.00;99.90;;;;;;5023690;28;38134;-90
2022/09/09 13:09:00;;;;;;;5.47;1.90;;;17.30;99.90;;;;;;5022501;28;36840;-87
2022/09/09 13:11:35;;;;;;;5.18;2.00;;;17.30;99.90;;;;;;5022409;28;47682;-85
2022/09/09 13:14:02;;;;;;;3.85;1.80;;;17.30;99.90;;;;;;5002092;28;39672;-84
2022/09/09 13:16:33;;;;;;;5.78;2.13;;;17.30;99.90;;;;;;5024539;28;39352;-91
2022/09/09 13:19:02;;;;;;;6.55;2.05;;;17.30;99.90;;;;;;5008231;28;37082;-86
2022/09/09 13:21:39;;;;;;;5.45;2.35;;;17.30;99.90;;;;;;5019033;28;49631;-86
2022/09/09 13:24:21;;;;;;;6.22;1.75;;;17.30;99.90;;;;;;5006564;28;37937;-85
2022/09/09 13:26:56;;;;;;;6.15;2.10;;;17.40;99.90;;;;;;5007017;28;39305;-85
2022/09/09 13:29:22;;;;;;;12.93;3.17;;;17.50;99.90;;;;;;5002927;28;38358;-85
2022/09/09 13:31:52;;;;;;;6.90;2.88;;;17.40;99.90;;;;;;5006183;28;36049;-89
2022/09/09 13:34:33;;;;;;;10.23;3.30;;;17.00;99.90;;;;;;5005847;28;40456;-82
2022/09/09 13:37:02;;;;;;;9.95;2.20;;;16.90;99.90;;;;;;5029408;28;38047;-83
2022/09/09 13:39:28;;;;;;;6.15;2.40;;;16.80;99.90;;;;;;4978780;28;47185;-81
2022/09/09 13:41:55;;;;;;;5.30;2.60;;;16.60;99.90;;;;;;5004222;28;36334;-78
2022/09/09 13:44:26;;;;;;;8.40;3.22;;;16.60;99.90;;;;;;5022680;28;38291;-82
2022/09/09 13:47:18;;;;;;;10.13;3.80;;;16.50;99.90;;;;;;5005517;28;36905;-85
2022/09/09 13:49:48;;;;;;;5.65;2.50;;;16.50;99.90;;;;;;5009996;28;48927;-85
2022/09/09 13:52:16;;;;;;;9.15;2.90;;;16.50;99.90;;;;;;4999557;28;36990;-80
2022/09/09 13:54:47;;;;;;;7.63;2.58;;;16.40;99.90;;;;;;5002037;28;39289;-80
2022/09/09 13:57:24;;;;;;;7.88;2.90;;;16.40;99.90;;;;;;5024826;28;40115;-81
2022/09/09 13:59:52;;;;;;;10.88;3.30;;;16.50;99.90;;;;;;4999743;28;37006;-80
2022/09/09 14:02:19;;;;;;;7.18;2.92;;;16.50;99.90;;;;;;5023345;28;36546;-84
2022/09/09 14:04:45;;;;;;;8.35;3.10;;;16.60;99.90;;;;;;5003872;28;38967;-83
2022/09/09 14:07:13;;;;;;;6.68;3.40;;;16.60;99.90;;;;;;5002801;28;37390;-80
2022/09/09 14:09:40;;;;;;;4.28;2.38;;;16.70;99.90;;;;;;5001648;28;38765;-82
2022/09/09 14:12:12;;;;;;;4.97;2.30;;;16.70;99.90;;;;;;5014300;28;39014;-81
2022/09/09 14:14:38;;;;;;;5.60;1.73;;;16.70;99.90;;;;;;5020495;28;39665;-80
2022/09/09 14:17:04;;;;;;;4.85;2.20;;;16.70;99.90;;;;;;5003338;28;37282;-81